createdAt,value
2017-09-07T00:02:11.872Z,140.97
2017-09-07T00:04:40.929Z,146.17
2017-09-07T00:07:10.108Z,143.27
2017-09-07T00:09:39.672Z,146.77
2017-09-07T00:12:08.806Z,142.93
2017-09-07T00:14:37.782Z,142.03
2017-09-07T00:17:06.893Z,154.17
2017-09-07T00:19:36.196Z,148.87
2017-09-07T00:22:05.629Z,150.53
2017-09-07T00:24:34.666Z,160.80
2017-09-07T00:27:03.715Z,153.67
2017-09-07T00:29:33.066Z,156.20
2017-09-07T00:32:02.382Z,150.13
2017-09-07T00:34:31.866Z,159.80
2017-09-07T00:37:01.238Z,145.57
2017-09-07T00:39:30.474Z,147.67
2017-09-07T00:41:59.849Z,146.90
2017-09-07T00:44:29.253Z,163.13
2017-09-07T00:46:58.448Z,174.67
2017-09-07T00:49:27.798Z,179.97
2017-09-07T00:51:57.303Z,176.43
2017-09-07T00:54:26.469Z,189.77
2017-09-07T00:56:55.904Z,201.33
2017-09-07T00:59:26.141Z,198.70
2017-09-07T01:01:55.628Z,188.03
2017-09-07T01:04:24.867Z,203.80
2017-09-07T01:06:54.302Z,201.90
2017-09-07T01:09:23.737Z,203.30
2017-09-07T01:11:53.487Z,198.10
2017-09-07T01:14:22.765Z,184.90
2017-09-07T01:16:51.861Z,183.30
2017-09-07T01:19:21.242Z,172.53
2017-09-07T01:21:50.612Z,184.97
2017-09-07T01:24:19.974Z,170.93
2017-09-07T01:26:49.107Z,168.03
2017-09-07T01:29:18.289Z,177.00
2017-09-07T01:31:47.485Z,170.00
2017-09-07T01:34:16.786Z,166.13
2017-09-07T01:36:46.095Z,172.50
2017-09-07T01:39:15.385Z,167.77
2017-09-07T01:41:44.689Z,164.97
2017-09-07T01:44:14.035Z,165.03
2017-09-07T01:46:43.161Z,167.57
2017-09-07T01:49:12.627Z,161.60
2017-09-07T01:51:41.912Z,170.47
2017-09-07T01:54:11.300Z,160.03
2017-09-07T01:56:40.928Z,160.53
2017-09-07T01:59:10.368Z,164.03
2017-09-07T02:01:40.553Z,164.50
2017-09-07T02:04:09.870Z,167.13
2017-09-07T02:06:39.398Z,174.90
2017-09-07T02:09:08.599Z,163.17
2017-09-07T02:11:37.720Z,171.67
2017-09-07T02:14:07.302Z,174.23
2017-09-07T02:16:37.106Z,169.10
2017-09-07T02:19:06.408Z,165.20
2017-09-07T02:21:35.581Z,164.60
2017-09-07T02:24:48.396Z,158.70
2017-09-07T02:27:17.593Z,152.23
2017-09-07T02:29:47.811Z,155.23
2017-09-07T02:32:18.059Z,157.03
2017-09-07T02:34:47.319Z,146.00
2017-09-07T02:37:16.724Z,142.77
2017-09-07T02:39:45.970Z,138.83
2017-09-07T02:42:15.178Z,140.07
2017-09-07T02:44:44.260Z,141.03
2017-09-07T02:47:13.618Z,139.80
2017-09-07T02:49:42.831Z,132.30
2017-09-07T02:52:12.506Z,123.27
2017-09-07T02:54:41.854Z,123.30
2017-09-07T02:57:10.908Z,122.07
2017-09-07T02:59:40.230Z,122.57
2017-09-07T03:02:11.362Z,122.27
2017-09-07T03:04:40.850Z,113.40
2017-09-07T03:07:09.952Z,115.87
2017-09-07T03:09:39.340Z,111.93
2017-09-07T03:12:08.589Z,109.00
2017-09-07T03:14:38.027Z,108.67
2017-09-07T03:17:07.146Z,98.70
2017-09-07T03:19:36.359Z,96.50
2017-09-07T03:22:05.589Z,97.27
2017-09-07T03:24:35.624Z,98.77
2017-09-07T03:27:04.830Z,97.97
2017-09-07T03:29:33.494Z,93.67
2017-09-07T03:32:03.956Z,90.53
2017-09-07T03:34:33.057Z,91.37
2017-09-07T03:37:02.688Z,90.20
2017-09-07T03:39:32.056Z,85.00
2017-09-07T03:42:01.216Z,83.23
2017-09-07T03:44:29.966Z,85.57
2017-09-07T03:46:58.745Z,82.93
2017-09-07T03:49:27.512Z,77.00
2017-09-07T03:51:56.366Z,70.07
2017-09-07T03:54:25.591Z,76.37
2017-09-07T03:56:54.717Z,77.77
2017-09-07T03:59:23.836Z,75.67
2017-09-07T04:01:53.089Z,69.13
2017-09-07T04:04:23.182Z,76.77
2017-09-07T04:06:53.022Z,74.40
2017-09-07T04:09:22.403Z,69.47
2017-09-07T04:11:51.434Z,74.23
2017-09-07T04:14:20.575Z,73.37
2017-09-07T04:16:49.922Z,68.70
2017-09-07T04:19:19.063Z,74.70
2017-09-07T04:21:48.732Z,73.67
2017-09-07T04:24:17.696Z,75.50
2017-09-07T04:26:47.539Z,69.80
2017-09-07T04:29:17.289Z,67.97
2017-09-07T04:31:46.738Z,67.20
2017-09-07T04:34:16.919Z,68.30
2017-09-07T04:36:46.136Z,72.20
2017-09-07T04:39:16.325Z,69.50
2017-09-07T04:41:45.932Z,66.03
2017-09-07T04:44:15.268Z,65.33
2017-09-07T04:46:44.811Z,66.93
2017-09-07T04:49:13.769Z,67.90
2017-09-07T04:51:43.188Z,66.77
2017-09-07T04:54:12.503Z,65.00
2017-09-07T04:56:41.988Z,66.73
2017-09-07T04:59:11.614Z,65.57
2017-09-07T05:01:40.963Z,61.70
2017-09-07T05:04:10.385Z,60.00
2017-09-07T05:06:41.169Z,57.50
2017-09-07T05:09:09.978Z,62.70
2017-09-07T05:11:39.706Z,66.37
2017-09-07T05:14:08.751Z,73.07
2017-09-07T05:16:38.405Z,81.53
2017-09-07T05:19:07.850Z,94.40
2017-09-07T05:21:37.276Z,95.37
2017-09-07T05:24:06.668Z,70.50
2017-09-07T05:26:35.932Z,73.40
2017-09-07T05:29:06.177Z,77.60
2017-09-07T05:31:35.914Z,91.70
2017-09-07T05:34:04.932Z,119.17
2017-09-07T05:36:33.992Z,114.20
2017-09-07T05:39:04.092Z,106.30
2017-09-07T05:41:33.605Z,115.80
2017-09-07T05:44:02.477Z,137.97
2017-09-07T05:46:31.516Z,116.47
2017-09-07T05:49:00.450Z,134.90
2017-09-07T05:51:29.299Z,153.50
2017-09-07T05:53:58.273Z,136.90
2017-09-07T05:56:28.615Z,136.97
2017-09-07T05:58:58.051Z,137.50
2017-09-07T06:01:27.711Z,156.60
2017-09-07T06:03:57.192Z,157.77
2017-09-07T06:06:27.209Z,161.63
2017-09-07T06:08:58.336Z,163.40
2017-09-07T06:11:28.127Z,159.07
2017-09-07T06:13:57.389Z,163.13
2017-09-07T06:16:27.151Z,151.80
2017-09-07T06:18:56.465Z,159.53
2017-09-07T06:21:26.035Z,152.37
2017-09-07T06:23:55.253Z,147.80
2017-09-07T06:26:24.638Z,144.83
2017-09-07T06:28:53.900Z,144.30
2017-09-07T06:31:23.366Z,136.07
2017-09-07T06:33:52.709Z,131.47
2017-09-07T06:36:22.385Z,122.90
2017-09-07T06:38:51.545Z,128.03
2017-09-07T06:41:21.275Z,127.30
2017-09-07T06:43:50.583Z,138.10
2017-09-07T06:46:19.848Z,138.70
2017-09-07T06:48:49.215Z,141.07
2017-09-07T06:51:19.675Z,142.67
2017-09-07T06:53:48.987Z,139.63
2017-09-07T06:56:18.104Z,143.23
2017-09-07T06:58:47.527Z,140.70
2017-09-07T07:01:17.098Z,134.60
2017-09-07T07:03:46.599Z,140.90
2017-09-07T07:06:16.164Z,135.63
2017-09-07T07:08:45.888Z,136.97
2017-09-07T07:11:16.414Z,137.80
2017-09-07T07:13:45.935Z,143.90
2017-09-07T07:16:15.387Z,144.80
2017-09-07T07:18:44.743Z,139.93
2017-09-07T07:21:14.106Z,140.27
2017-09-07T07:23:44.350Z,132.13
2017-09-07T07:26:14.070Z,135.40
2017-09-07T07:28:43.611Z,133.77
2017-09-07T07:31:13.160Z,138.57
2017-09-07T07:33:43.481Z,131.60
2017-09-07T07:36:14.153Z,132.43
2017-09-07T07:38:44.018Z,129.27
2017-09-07T07:41:13.554Z,136.50
2017-09-07T07:43:43.547Z,142.70
2017-09-07T07:46:13.342Z,131.13
2017-09-07T07:48:42.610Z,127.60
2017-09-07T07:51:11.763Z,132.57
2017-09-07T07:53:40.925Z,129.70
2017-09-07T07:56:10.129Z,137.57
2017-09-07T07:58:39.360Z,125.03
2017-09-07T08:01:08.600Z,123.73
2017-09-07T08:03:38.014Z,122.13
2017-09-07T08:06:07.704Z,126.57
2017-09-07T08:08:36.944Z,125.90
2017-09-07T08:11:06.355Z,129.83
2017-09-07T08:13:36.226Z,135.53
2017-09-07T08:16:05.813Z,135.00
2017-09-07T08:18:35.042Z,134.97
2017-09-07T08:21:04.592Z,129.47
2017-09-07T08:23:33.806Z,117.57
2017-09-07T08:26:03.233Z,114.97
2017-09-07T08:28:32.536Z,110.00
2017-09-07T08:31:01.914Z,105.53
2017-09-07T08:33:32.056Z,97.13
2017-09-07T08:36:01.587Z,87.07
2017-09-07T08:38:31.107Z,81.90
2017-09-07T08:41:00.158Z,92.87
2017-09-07T08:43:29.763Z,78.47
2017-09-07T08:45:59.198Z,69.27
2017-09-07T08:48:28.617Z,67.07
2017-09-07T08:50:57.721Z,68.80
2017-09-07T08:53:27.036Z,64.10
2017-09-07T08:55:56.450Z,64.63
2017-09-07T08:58:26.488Z,60.90
2017-09-07T09:00:56.625Z,59.83
2017-09-07T09:03:25.988Z,59.60
2017-09-07T09:05:55.621Z,62.00
2017-09-07T09:08:25.040Z,59.67
2017-09-07T09:10:54.454Z,57.20
2017-09-07T09:13:23.581Z,56.37
2017-09-07T09:15:53.462Z,58.57
2017-09-07T09:18:22.591Z,54.33
2017-09-07T09:20:52.310Z,55.07
2017-09-07T09:23:21.853Z,53.53
2017-09-07T09:25:51.153Z,49.13
2017-09-07T09:28:20.706Z,56.07
2017-09-07T09:30:49.849Z,50.37
2017-09-07T09:33:19.111Z,51.57
2017-09-07T09:35:48.456Z,50.60
2017-09-07T09:38:17.963Z,50.87
2017-09-07T09:40:47.104Z,52.90
2017-09-07T09:43:16.545Z,51.73
2017-09-07T09:45:45.784Z,54.27
2017-09-07T09:48:15.007Z,52.27
2017-09-07T09:50:45.174Z,52.13
2017-09-07T09:53:14.566Z,48.93
2017-09-07T09:55:43.796Z,50.00
2017-09-07T09:58:13.077Z,50.30
2017-09-07T10:00:42.560Z,50.73
2017-09-07T10:03:12.514Z,49.73
2017-09-07T10:05:41.840Z,48.97
2017-09-07T10:08:11.116Z,49.13
2017-09-07T10:10:40.355Z,50.80
2017-09-07T10:13:09.493Z,48.90
2017-09-07T10:15:38.752Z,49.47
2017-09-07T10:18:09.677Z,52.30
2017-09-07T10:20:38.965Z,50.03
2017-09-07T10:23:08.233Z,55.10
2017-09-07T10:25:37.889Z,49.40
2017-09-07T10:28:06.927Z,49.17
2017-09-07T10:30:36.478Z,50.77
2017-09-07T10:33:06.099Z,51.00
2017-09-07T10:35:35.480Z,51.00
2017-09-07T10:38:04.834Z,49.73
2017-09-07T10:40:35.221Z,50.40
2017-09-07T10:43:04.733Z,50.70
2017-09-07T10:45:33.921Z,48.30
2017-09-07T10:48:03.458Z,50.27
2017-09-07T10:50:32.752Z,48.50
2017-09-07T10:53:02.234Z,46.97
2017-09-07T10:55:31.553Z,51.60
2017-09-07T10:58:00.930Z,47.40
2017-09-07T11:00:30.404Z,49.10
2017-09-07T11:02:59.568Z,48.50
2017-09-07T11:05:28.626Z,54.30
2017-09-07T11:07:57.829Z,50.80
2017-09-07T11:10:27.333Z,47.17
2017-09-07T11:12:56.438Z,50.67
2017-09-07T11:15:25.680Z,48.70
2017-09-07T11:17:55.314Z,49.10
2017-09-07T11:20:25.210Z,48.93
2017-09-07T11:22:54.594Z,48.20
2017-09-07T11:25:23.840Z,45.47
2017-09-07T11:27:53.145Z,44.90
2017-09-07T11:30:22.665Z,47.57
2017-09-07T11:32:52.040Z,48.27
2017-09-07T11:35:21.391Z,47.00
2017-09-07T11:37:50.702Z,48.97
2017-09-07T11:40:19.960Z,47.13
2017-09-07T11:42:49.353Z,44.07
2017-09-07T11:45:18.621Z,44.00
2017-09-07T11:47:47.863Z,44.87
2017-09-07T11:50:17.181Z,47.07
2017-09-07T11:52:46.608Z,45.97
2017-09-07T11:55:15.744Z,47.27
2017-09-07T11:57:45.118Z,48.10
2017-09-07T12:00:14.835Z,45.50
2017-09-07T12:02:44.058Z,44.80
2017-09-07T12:05:13.420Z,42.40
2017-09-07T12:07:42.737Z,42.90
2017-09-07T12:10:12.672Z,47.17
2017-09-07T12:12:42.080Z,44.77
2017-09-07T12:15:11.582Z,40.87
2017-09-07T12:17:40.860Z,39.20
2017-09-07T12:20:11.074Z,40.37
2017-09-07T12:22:41.817Z,37.73
2017-09-07T12:25:11.055Z,41.30
2017-09-07T12:27:40.288Z,38.80
2017-09-07T12:30:09.642Z,34.80
2017-09-07T12:32:38.959Z,37.50
2017-09-07T12:35:08.315Z,35.60
2017-09-07T12:37:37.665Z,33.10
2017-09-07T12:40:06.969Z,35.33
2017-09-07T12:42:36.370Z,29.03
2017-09-07T12:45:05.600Z,32.63
2017-09-07T12:47:35.028Z,29.90
2017-09-07T12:50:04.320Z,31.27
2017-09-07T12:52:33.918Z,30.87
2017-09-07T12:55:03.988Z,31.20
2017-09-07T12:57:33.259Z,29.70
2017-09-07T13:00:02.750Z,31.50
2017-09-07T13:02:32.279Z,32.67
2017-09-07T13:05:01.534Z,32.30
2017-09-07T13:07:30.865Z,32.10
2017-09-07T13:10:00.974Z,32.97
2017-09-07T13:12:30.294Z,28.93
2017-09-07T13:14:59.640Z,31.80
2017-09-07T13:17:29.034Z,29.80
2017-09-07T13:19:58.080Z,29.47
2017-09-07T13:22:27.455Z,30.27
2017-09-07T13:24:58.312Z,30.13
2017-09-07T13:27:27.519Z,30.23
2017-09-07T13:29:57.557Z,29.83
2017-09-07T13:32:26.699Z,31.90
2017-09-07T13:34:56.284Z,31.20
2017-09-07T13:37:25.468Z,31.23
2017-09-07T13:39:54.811Z,31.27
2017-09-07T13:42:24.143Z,30.40
2017-09-07T13:44:54.338Z,29.83
2017-09-07T13:47:23.734Z,29.33
2017-09-07T13:49:52.883Z,30.33
2017-09-07T13:52:22.139Z,31.47
2017-09-07T13:54:52.190Z,33.77
2017-09-07T13:57:21.451Z,32.57
2017-09-07T13:59:50.614Z,29.23
2017-09-07T14:02:19.802Z,33.50
2017-09-07T14:04:49.232Z,32.27
2017-09-07T14:07:18.654Z,29.90
2017-09-07T14:09:48.178Z,31.97
2017-09-07T14:12:17.536Z,31.30
2017-09-07T14:14:47.016Z,30.30
2017-09-07T14:17:16.451Z,29.60
2017-09-07T14:19:45.770Z,27.53
2017-09-07T14:22:15.229Z,28.10
2017-09-07T14:24:44.548Z,28.67
2017-09-07T14:27:14.740Z,28.17
2017-09-07T14:29:43.900Z,31.57
2017-09-07T14:32:13.233Z,28.57
2017-09-07T14:34:43.338Z,30.27
2017-09-07T14:37:12.654Z,29.20
2017-09-07T14:39:42.141Z,29.20
2017-09-07T14:42:12.274Z,30.03
2017-09-07T14:44:42.194Z,30.47
2017-09-07T14:47:12.699Z,30.67
2017-09-07T14:49:42.228Z,31.80
2017-09-07T14:52:11.262Z,31.93
2017-09-07T14:54:40.005Z,29.57
2017-09-07T14:57:09.032Z,28.27
2017-09-07T14:59:38.423Z,29.87
2017-09-07T15:02:07.935Z,29.97
2017-09-07T15:04:38.140Z,27.67
2017-09-07T15:07:06.793Z,28.80
2017-09-07T15:09:35.519Z,28.40
2017-09-07T15:12:04.489Z,29.90
2017-09-07T15:14:33.621Z,28.23
2017-09-07T15:17:02.790Z,29.20
2017-09-07T15:19:33.032Z,30.03
2017-09-07T15:22:02.327Z,27.00
2017-09-07T15:24:32.277Z,28.27
2017-09-07T15:27:01.542Z,26.97
2017-09-07T15:29:31.560Z,26.20
2017-09-07T15:32:00.878Z,27.73
2017-09-07T15:34:30.142Z,30.73
2017-09-07T15:36:59.750Z,28.67
2017-09-07T15:39:29.728Z,26.20
2017-09-07T15:41:59.306Z,29.53
2017-09-07T15:44:28.764Z,28.13
2017-09-07T15:46:58.099Z,28.17
2017-09-07T15:49:27.380Z,26.40
2017-09-07T15:51:56.796Z,28.10
2017-09-07T15:54:26.820Z,26.93
2017-09-07T15:56:56.336Z,27.97
2017-09-07T15:59:25.524Z,27.73
2017-09-07T16:01:54.941Z,27.83
2017-09-07T16:04:24.476Z,26.10
2017-09-07T16:06:53.792Z,26.93
2017-09-07T16:09:23.014Z,27.97
2017-09-07T16:11:52.952Z,27.40
2017-09-07T16:14:22.259Z,26.70
2017-09-07T16:16:51.496Z,27.20
2017-09-07T16:19:20.943Z,26.90
2017-09-07T16:21:51.185Z,26.90
2017-09-07T16:24:20.683Z,27.70
2017-09-07T16:26:49.776Z,26.63
2017-09-07T16:29:19.289Z,28.73
2017-09-07T16:31:48.816Z,27.00
2017-09-07T16:34:18.014Z,26.63
2017-09-07T16:36:47.307Z,26.17
2017-09-07T16:39:16.464Z,27.17
2017-09-07T16:41:46.773Z,28.27
2017-09-07T16:44:15.986Z,27.13
2017-09-07T16:46:46.200Z,26.27
2017-09-07T16:49:15.531Z,25.50
2017-09-07T16:51:45.036Z,26.47
2017-09-07T16:54:14.256Z,27.93
2017-09-07T16:56:43.635Z,25.63
2017-09-07T16:59:12.698Z,27.07
2017-09-07T17:01:42.087Z,26.43
2017-09-07T17:04:11.654Z,26.90
2017-09-07T17:06:41.051Z,27.40
2017-09-07T17:09:10.621Z,25.30
2017-09-07T17:11:39.999Z,27.53
2017-09-07T17:14:10.183Z,24.90
2017-09-07T17:16:39.370Z,26.33
2017-09-07T17:19:08.421Z,27.50
2017-09-07T17:21:37.720Z,23.43
2017-09-07T17:24:06.833Z,24.30
2017-09-07T17:26:36.052Z,25.40
2017-09-07T17:29:05.680Z,25.07
2017-09-07T17:31:35.006Z,26.17
2017-09-07T17:34:05.150Z,25.73
2017-09-07T17:36:34.709Z,26.70
2017-09-07T17:39:04.191Z,24.60
2017-09-07T17:41:33.605Z,25.23
2017-09-07T17:44:03.088Z,25.00
2017-09-07T17:46:32.362Z,26.43
2017-09-07T17:49:01.685Z,23.07
2017-09-07T17:51:30.858Z,24.47
2017-09-07T17:54:00.293Z,25.23
2017-09-07T17:56:29.593Z,23.33
2017-09-07T17:58:58.841Z,26.10
2017-09-07T18:01:28.177Z,25.57
2017-09-07T18:03:57.489Z,25.50
2017-09-07T18:06:27.823Z,24.20
2017-09-07T18:08:57.859Z,25.27
2017-09-07T18:11:27.558Z,25.33
2017-09-07T18:13:56.845Z,25.93
2017-09-07T18:16:26.149Z,23.93
2017-09-07T18:18:55.592Z,23.37
2017-09-07T18:21:25.000Z,22.50
2017-09-07T18:23:54.535Z,23.47
2017-09-07T18:26:23.837Z,23.93
2017-09-07T18:28:53.091Z,24.83
2017-09-07T18:31:22.204Z,24.10
2017-09-07T18:33:51.518Z,25.60
2017-09-07T18:36:21.436Z,25.27
2017-09-07T18:38:50.764Z,25.73
2017-09-07T18:41:20.170Z,23.73
2017-09-07T18:43:49.531Z,24.23
2017-09-07T18:46:18.979Z,22.63
2017-09-07T18:48:48.246Z,24.90
2017-09-07T18:51:17.344Z,23.20
2017-09-07T18:53:46.786Z,23.00
2017-09-07T18:56:16.023Z,23.17
2017-09-07T18:58:44.929Z,24.37
2017-09-07T19:01:13.995Z,23.80
2017-09-07T19:03:43.303Z,22.27
2017-09-07T19:06:12.538Z,24.53
2017-09-07T19:08:42.024Z,24.07
2017-09-07T19:11:11.419Z,22.50
2017-09-07T19:13:40.665Z,21.90
2017-09-07T19:16:10.035Z,21.90
2017-09-07T19:18:39.313Z,19.50
2017-09-07T19:21:08.726Z,21.27
2017-09-07T19:23:37.987Z,20.93
2017-09-07T19:26:08.151Z,20.57
2017-09-07T19:28:38.268Z,17.93
2017-09-07T19:31:07.594Z,20.40
2017-09-07T19:33:36.685Z,19.90
2017-09-07T19:36:06.063Z,19.57
2017-09-07T19:38:36.058Z,19.10
2017-09-07T19:41:05.967Z,20.97
2017-09-07T19:43:35.188Z,20.00
2017-09-07T19:46:04.417Z,19.60
2017-09-07T19:48:33.713Z,19.10
2017-09-07T19:51:03.199Z,20.53
2017-09-07T19:53:32.628Z,20.10
2017-09-07T19:56:01.814Z,19.60
2017-09-07T19:58:31.124Z,20.30
2017-09-07T20:01:01.436Z,20.20
2017-09-07T20:03:30.549Z,20.20
2017-09-07T20:05:59.751Z,19.80
2017-09-07T20:08:28.898Z,18.77
2017-09-07T20:10:58.201Z,19.97
2017-09-07T20:13:27.797Z,20.90
2017-09-07T20:15:57.209Z,20.07
2017-09-07T20:18:26.573Z,20.23
2017-09-07T20:20:55.985Z,20.10
2017-09-07T20:23:25.511Z,20.33
2017-09-07T20:25:54.768Z,21.43
2017-09-07T20:28:24.304Z,20.60
2017-09-07T20:30:54.336Z,21.70
2017-09-07T20:33:23.565Z,21.13
2017-09-07T20:35:52.880Z,22.37
2017-09-07T20:38:22.192Z,21.47
2017-09-07T20:40:51.952Z,20.93
2017-09-07T20:43:21.983Z,21.73
2017-09-07T20:45:51.338Z,20.27
2017-09-07T20:48:20.609Z,20.70
2017-09-07T20:50:50.000Z,21.00
2017-09-07T20:53:19.437Z,21.17
2017-09-07T20:55:48.754Z,20.87
2017-09-07T20:58:18.133Z,20.10
2017-09-07T21:00:47.297Z,23.00
2017-09-07T21:03:16.605Z,20.23
2017-09-07T21:05:45.960Z,20.97
2017-09-07T21:08:15.073Z,20.80
2017-09-07T21:10:44.642Z,22.40
2017-09-07T21:13:13.583Z,22.40
2017-09-07T21:15:42.278Z,21.43
2017-09-07T21:18:11.775Z,21.20
2017-09-07T21:20:41.012Z,22.13
2017-09-07T21:23:10.184Z,20.93
2017-09-07T21:25:39.372Z,21.37
2017-09-07T21:28:08.853Z,22.30
2017-09-07T21:30:39.161Z,22.00
2017-09-07T21:33:09.414Z,22.77
2017-09-07T21:35:39.087Z,23.37
2017-09-07T21:38:08.264Z,22.70
2017-09-07T21:40:37.467Z,22.33
2017-09-07T21:43:07.694Z,20.80
2017-09-07T21:45:36.886Z,21.60
2017-09-07T21:48:05.975Z,20.80
2017-09-07T21:50:35.310Z,22.87
2017-09-07T21:53:04.791Z,21.87
2017-09-07T21:55:33.462Z,22.43
2017-09-07T21:58:02.807Z,21.60
2017-09-07T22:00:32.135Z,20.77
2017-09-07T22:03:01.466Z,20.40
2017-09-07T22:05:30.840Z,20.60
2017-09-07T22:08:00.052Z,20.43
2017-09-07T22:10:29.331Z,20.57
2017-09-07T22:12:58.569Z,19.63
2017-09-07T22:15:27.429Z,20.07
2017-09-07T22:17:56.177Z,19.70
2017-09-07T22:20:25.004Z,20.30
2017-09-07T22:22:54.504Z,20.23
2017-09-07T22:25:23.953Z,18.00
2017-09-07T22:27:53.122Z,17.70
2017-09-07T22:30:22.196Z,17.50
2017-09-07T22:32:51.686Z,17.57
2017-09-07T22:35:21.828Z,18.47
2017-09-07T22:37:50.577Z,19.50
2017-09-07T22:40:19.919Z,17.20
2017-09-07T22:42:49.221Z,16.73
2017-09-07T22:45:18.850Z,17.90
2017-09-07T22:47:48.378Z,19.20
2017-09-07T22:50:17.700Z,18.73
2017-09-07T22:52:46.709Z,20.53
2017-09-07T22:55:16.700Z,19.97
2017-09-07T22:57:45.550Z,17.30
2017-09-07T23:00:14.859Z,17.50
2017-09-07T23:02:44.062Z,20.20
2017-09-07T23:05:13.254Z,17.00
2017-09-07T23:07:42.791Z,18.17
2017-09-07T23:10:11.982Z,17.27
2017-09-07T23:12:41.396Z,18.17
2017-09-07T23:15:10.257Z,19.20
2017-09-07T23:17:39.585Z,16.50
2017-09-07T23:20:08.987Z,20.00
2017-09-07T23:22:38.179Z,18.63
2017-09-07T23:25:07.321Z,20.93
2017-09-07T23:27:36.578Z,19.53
2017-09-07T23:30:05.688Z,20.00
2017-09-07T23:32:35.072Z,18.77
2017-09-07T23:35:04.639Z,17.30
2017-09-07T23:37:34.384Z,17.23
2017-09-07T23:40:03.430Z,16.50
2017-09-07T23:42:32.669Z,18.40
2017-09-07T23:45:02.154Z,18.83
2017-09-07T23:47:32.461Z,17.20
2017-09-07T23:50:02.496Z,23.30
2017-09-07T23:52:31.991Z,20.43
2017-09-07T23:55:01.256Z,15.83
2017-09-07T23:57:30.439Z,18.67
